Flugplatz Arnsberg-Menden

Für EDLA sind keine METAR/TAF Berichte vorhanden.
Es werden die Flugwettermeldungen vom Flugplatz Dortmund in 20 km Entfernung angezeigt.

Bericht für EDLW

vom 28.09. um 22:20 UTC

Wind 6 kt aus 140°

Sichtweite 10 km oder mehr

gering bewölkt in 20000 ft

Temperatur 11.0°C

Taupunkt 9.0°C

Luftfeuchtigkeit 87%

Luftdruck 1019 hPa

EDLW 282220Z AUTO 14006KT 9999 // FEW200/// 11/09 Q1019

Prognose für EDLW

vom 28.09. um 17:07 UTC

Am 28.09. zwischen 18:00 UTC und 07:00 UTC

Wind 5 kt aus 150°

Sichtweite 10 km oder mehr

aufgelockert bewölkt in 3000 ft


Zwischen 07:00 und 10:00 UTC übergehend zu

Wind 11 kt aus 210°

Sichtweite 10 km oder mehr

aufgelockert bewölkt in 3000 ft


Zwischen 08:00 UTC und 11:00 UTC zeitweise

Regen


Zwischen 11:00 UTC und 18:00 UTC zeitweise

Wind 15 kt aus 240° in Böen 30 kt

Regenschauer

aufgebrochene Bewölkung in 2500 ft


Zwischen 12:00 UTC und 18:00 UTC zeitweise mit einer Wahrscheinlichkeit von 30%

Wind 20 kt aus 240° in Böen 35 kt

Sichtweite 4500 m

Code: TSRA

TAF COR EDLW 281707Z 2818/2918 15005KT 9999 SCT030 BECMG 2907/2910 21011KT TEMPO 2908/2911 RA TEMPO 2911/2918 24015G30KT SHRA BKN025CB PROB30 TEMPO 2912/2918 24020G35KT 4500 TSRA
Impressum